sensor_id;sensor_type;location;lat;lon;timestamp;P1;durP1;ratioP1;P2;durP2;ratioP2
36475;SDS011;56615;42.682;23.364;2024-01-15T00:01:20;140.40;;;67.63;;
36475;SDS011;56615;42.682;23.364;2024-01-15T00:03:46;162.07;;;73.45;;
36475;SDS011;56615;42.682;23.364;2024-01-15T00:06:11;140.70;;;65.93;;
36475;SDS011;56615;42.682;23.364;2024-01-15T00:08:37;148.57;;;69.18;;
36475;SDS011;56615;42.682;23.364;2024-01-15T00:11:02;151.98;;;72.35;;
36475;SDS011;56615;42.682;23.364;2024-01-15T00:13:27;161.95;;;77.90;;
36475;SDS011;56615;42.682;23.364;2024-01-15T00:15:53;147.52;;;73.25;;
36475;SDS011;56615;42.682;23.364;2024-01-15T00:18:18;158.88;;;73.90;;
36475;SDS011;56615;42.682;23.364;2024-01-15T00:20:44;149.40;;;70.88;;
36475;SDS011;56615;42.682;23.364;2024-01-15T00:23:09;145.10;;;69.72;;
36475;SDS011;56615;42.682;23.364;2024-01-15T00:25:34;139.85;;;68.13;;
36475;SDS011;56615;42.682;23.364;2024-01-15T00:28:00;137.95;;;66.05;;
36475;SDS011;56615;42.682;23.364;2024-01-15T00:30:25;147.32;;;70.20;;
36475;SDS011;56615;42.682;23.364;2024-01-15T00:32:50;156.68;;;74.25;;
36475;SDS011;56615;42.682;23.364;2024-01-15T00:35:17;157.95;;;77.65;;
36475;SDS011;56615;42.682;23.364;2024-01-15T00:37:42;160.55;;;73.78;;
36475;SDS011;56615;42.682;23.364;2024-01-15T00:40:07;150.88;;;72.28;;
36475;SDS011;56615;42.682;23.364;2024-01-15T00:42:33;149.43;;;69.68;;
36475;SDS011;56615;42.682;23.364;2024-01-15T00:44:59;148.43;;;72.13;;
36475;SDS011;56615;42.682;23.364;2024-01-15T00:47:24;137.50;;;66.88;;
36475;SDS011;56615;42.682;23.364;2024-01-15T00:49:50;135.35;;;68.10;;
36475;SDS011;56615;42.682;23.364;2024-01-15T00:52:15;150.95;;;68.47;;
36475;SDS011;56615;42.682;23.364;2024-01-15T00:54:53;143.13;;;70.65;;
36475;SDS011;56615;42.682;23.364;2024-01-15T00:57:18;141.60;;;68.43;;
36475;SDS011;56615;42.682;23.364;2024-01-15T00:59:45;145.00;;;69.82;;
36475;SDS011;56615;42.682;23.364;2024-01-15T01:02:10;143.38;;;68.50;;
36475;SDS011;56615;42.682;23.364;2024-01-15T01:04:35;145.20;;;69.35;;
36475;SDS011;56615;42.682;23.364;2024-01-15T01:07:01;134.93;;;67.07;;
36475;SDS011;56615;42.682;23.364;2024-01-15T01:09:27;140.68;;;66.50;;
36475;SDS011;56615;42.682;23.364;2024-01-15T01:11:55;136.15;;;67.43;;
36475;SDS011;56615;42.682;23.364;2024-01-15T01:14:20;136.15;;;67.88;;
36475;SDS011;56615;42.682;23.364;2024-01-15T01:16:46;135.95;;;67.40;;
36475;SDS011;56615;42.682;23.364;2024-01-15T01:19:11;136.15;;;67.13;;
36475;SDS011;56615;42.682;23.364;2024-01-15T01:21:36;141.38;;;67.82;;
36475;SDS011;56615;42.682;23.364;2024-01-15T01:24:02;139.98;;;66.85;;
36475;SDS011;56615;42.682;23.364;2024-01-15T01:26:27;132.48;;;66.68;;
36475;SDS011;56615;42.682;23.364;2024-01-15T01:28:53;144.20;;;68.75;;
36475;SDS011;56615;42.682;23.364;2024-01-15T01:31:18;170.77;;;82.22;;
36475;SDS011;56615;42.682;23.364;2024-01-15T01:33:44;171.35;;;80.82;;
36475;SDS011;56615;42.682;23.364;2024-01-15T01:38:54;190.30;;;86.30;;
36475;SDS011;56615;42.682;23.364;2024-01-15T01:41:21;189.88;;;88.13;;
36475;SDS011;56615;42.682;23.364;2024-01-15T01:43:46;199.75;;;91.25;;
36475;SDS011;56615;42.682;23.364;2024-01-15T01:46:13;199.63;;;94.65;;
36475;SDS011;56615;42.682;23.364;2024-01-15T01:48:38;200.73;;;95.70;;
36475;SDS011;56615;42.682;23.364;2024-01-15T01:51:04;219.10;;;100.03;;
36475;SDS011;56615;42.682;23.364;2024-01-15T01:53:29;214.82;;;100.40;;
36475;SDS011;56615;42.682;23.364;2024-01-15T01:55:57;221.02;;;101.93;;
36475;SDS011;56615;42.682;23.364;2024-01-15T01:58:22;192.88;;;91.95;;
36475;SDS011;56615;42.682;23.364;2024-01-15T02:00:50;197.60;;;88.10;;
36475;SDS011;56615;42.682;23.364;2024-01-15T02:03:16;176.90;;;81.35;;
36475;SDS011;56615;42.682;23.364;2024-01-15T02:05:42;136.07;;;64.15;;
36475;SDS011;56615;42.682;23.364;2024-01-15T02:08:09;141.50;;;65.05;;
36475;SDS011;56615;42.682;23.364;2024-01-15T02:10:35;135.80;;;62.58;;
36475;SDS011;56615;42.682;23.364;2024-01-15T02:13:01;128.90;;;62.65;;
36475;SDS011;56615;42.682;23.364;2024-01-15T02:15:27;133.05;;;57.35;;
36475;SDS011;56615;42.682;23.364;2024-01-15T02:20:24;136.43;;;61.50;;
36475;SDS011;56615;42.682;23.364;2024-01-15T02:22:51;123.70;;;57.30;;
36475;SDS011;56615;42.682;23.364;2024-01-15T02:25:17;128.88;;;56.47;;
36475;SDS011;56615;42.682;23.364;2024-01-15T02:27:45;123.63;;;57.78;;
36475;SDS011;56615;42.682;23.364;2024-01-15T02:30:11;115.35;;;55.55;;
36475;SDS011;56615;42.682;23.364;2024-01-15T02:32:40;106.63;;;50.95;;
36475;SDS011;56615;42.682;23.364;2024-01-15T02:35:06;110.45;;;50.60;;
36475;SDS011;56615;42.682;23.364;2024-01-15T02:37:32;107.15;;;48.83;;
36475;SDS011;56615;42.682;23.364;2024-01-15T02:39:58;106.72;;;48.20;;
36475;SDS011;56615;42.682;23.364;2024-01-15T02:42:25;106.65;;;49.03;;
36475;SDS011;56615;42.682;23.364;2024-01-15T02:44:51;98.00;;;47.97;;
36475;SDS011;56615;42.682;23.364;2024-01-15T02:47:16;108.65;;;50.40;;
36475;SDS011;56615;42.682;23.364;2024-01-15T02:49:42;110.20;;;51.63;;
36475;SDS011;56615;42.682;23.364;2024-01-15T02:52:07;114.03;;;52.28;;
36475;SDS011;56615;42.682;23.364;2024-01-15T02:54:32;98.85;;;45.15;;
36475;SDS011;56615;42.682;23.364;2024-01-15T02:56:58;83.38;;;40.42;;
36475;SDS011;56615;42.682;23.364;2024-01-15T02:59:25;83.15;;;40.35;;
36475;SDS011;56615;42.682;23.364;2024-01-15T03:01:50;73.35;;;35.78;;
36475;SDS011;56615;42.682;23.364;2024-01-15T03:04:16;74.05;;;33.35;;
36475;SDS011;56615;42.682;23.364;2024-01-15T03:06:42;65.32;;;31.50;;
36475;SDS011;56615;42.682;23.364;2024-01-15T03:09:08;66.95;;;31.90;;
36475;SDS011;56615;42.682;23.364;2024-01-15T03:11:37;71.07;;;33.85;;
36475;SDS011;56615;42.682;23.364;2024-01-15T03:14:05;60.60;;;29.15;;
36475;SDS011;56615;42.682;23.364;2024-01-15T03:16:31;59.38;;;29.30;;
36475;SDS011;56615;42.682;23.364;2024-01-15T03:18:58;67.97;;;33.90;;
36475;SDS011;56615;42.682;23.364;2024-01-15T03:21:23;64.95;;;30.98;;
36475;SDS011;56615;42.682;23.364;2024-01-15T03:23:49;70.82;;;32.92;;
36475;SDS011;56615;42.682;23.364;2024-01-15T03:26:14;71.03;;;32.75;;
36475;SDS011;56615;42.682;23.364;2024-01-15T03:28:39;70.93;;;34.40;;
36475;SDS011;56615;42.682;23.364;2024-01-15T03:31:05;70.32;;;33.47;;
36475;SDS011;56615;42.682;23.364;2024-01-15T03:33:31;60.60;;;27.60;;
36475;SDS011;56615;42.682;23.364;2024-01-15T03:35:56;56.40;;;25.98;;
36475;SDS011;56615;42.682;23.364;2024-01-15T03:38:22;53.97;;;26.80;;
36475;SDS011;56615;42.682;23.364;2024-01-15T03:40:48;56.30;;;26.40;;
36475;SDS011;56615;42.682;23.364;2024-01-15T03:43:14;61.55;;;28.20;;
36475;SDS011;56615;42.682;23.364;2024-01-15T03:45:40;56.35;;;27.75;;
36475;SDS011;56615;42.682;23.364;2024-01-15T03:48:05;59.53;;;26.15;;
36475;SDS011;56615;42.682;23.364;2024-01-15T03:50:32;55.70;;;27.15;;
36475;SDS011;56615;42.682;23.364;2024-01-15T03:52:59;53.22;;;26.52;;
36475;SDS011;56615;42.682;23.364;2024-01-15T03:55:24;58.03;;;26.45;;
36475;SDS011;56615;42.682;23.364;2024-01-15T03:57:50;53.72;;;26.05;;
36475;SDS011;56615;42.682;23.364;2024-01-15T04:00:16;53.00;;;24.88;;
36475;SDS011;56615;42.682;23.364;2024-01-15T04:02:42;56.17;;;26.42;;
36475;SDS011;56615;42.682;23.364;2024-01-15T04:05:19;52.28;;;25.85;;
36475;SDS011;56615;42.682;23.364;2024-01-15T04:07:44;58.17;;;28.38;;
36475;SDS011;56615;42.682;23.364;2024-01-15T04:10:10;54.08;;;26.88;;
36475;SDS011;56615;42.682;23.364;2024-01-15T04:12:35;58.97;;;28.48;;
36475;SDS011;56615;42.682;23.364;2024-01-15T04:15:00;56.75;;;28.17;;
36475;SDS011;56615;42.682;23.364;2024-01-15T04:17:26;59.33;;;27.65;;
36475;SDS011;56615;42.682;23.364;2024-01-15T04:19:52;54.08;;;26.33;;
36475;SDS011;56615;42.682;23.364;2024-01-15T04:22:17;51.83;;;25.55;;
36475;SDS011;56615;42.682;23.364;2024-01-15T04:24:43;52.53;;;26.60;;
36475;SDS011;56615;42.682;23.364;2024-01-15T04:27:09;57.50;;;27.45;;
36475;SDS011;56615;42.682;23.364;2024-01-15T04:29:37;55.42;;;26.98;;
36475;SDS011;56615;42.682;23.364;2024-01-15T04:32:03;55.03;;;26.98;;
36475;SDS011;56615;42.682;23.364;2024-01-15T04:34:28;57.20;;;26.45;;
36475;SDS011;56615;42.682;23.364;2024-01-15T04:36:54;59.22;;;28.20;;
36475;SDS011;56615;42.682;23.364;2024-01-15T04:39:19;62.97;;;29.27;;
36475;SDS011;56615;42.682;23.364;2024-01-15T04:41:47;66.22;;;30.52;;
36475;SDS011;56615;42.682;23.364;2024-01-15T04:44:12;64.05;;;29.63;;
36475;SDS011;56615;42.682;23.364;2024-01-15T04:46:42;62.13;;;30.20;;
36475;SDS011;56615;42.682;23.364;2024-01-15T04:49:08;65.70;;;30.63;;
36475;SDS011;56615;42.682;23.364;2024-01-15T04:51:34;67.30;;;31.80;;
36475;SDS011;56615;42.682;23.364;2024-01-15T04:53:59;61.63;;;31.45;;
36475;SDS011;56615;42.682;23.364;2024-01-15T04:56:25;65.35;;;31.23;;
36475;SDS011;56615;42.682;23.364;2024-01-15T04:58:50;59.40;;;30.35;;
36475;SDS011;56615;42.682;23.364;2024-01-15T05:01:17;60.33;;;29.92;;
36475;SDS011;56615;42.682;23.364;2024-01-15T05:03:43;65.78;;;31.17;;
36475;SDS011;56615;42.682;23.364;2024-01-15T05:06:09;59.58;;;28.35;;
36475;SDS011;56615;42.682;23.364;2024-01-15T05:08:35;62.40;;;28.70;;
36475;SDS011;56615;42.682;23.364;2024-01-15T05:11:00;57.63;;;28.80;;
36475;SDS011;56615;42.682;23.364;2024-01-15T05:13:25;58.70;;;29.35;;
36475;SDS011;56615;42.682;23.364;2024-01-15T05:15:51;65.80;;;31.00;;
36475;SDS011;56615;42.682;23.364;2024-01-15T05:18:17;64.20;;;31.98;;
36475;SDS011;56615;42.682;23.364;2024-01-15T05:20:42;72.95;;;33.60;;
36475;SDS011;56615;42.682;23.364;2024-01-15T05:23:07;61.65;;;32.00;;
36475;SDS011;56615;42.682;23.364;2024-01-15T05:25:33;71.18;;;35.13;;
36475;SDS011;56615;42.682;23.364;2024-01-15T05:27:58;72.38;;;34.17;;
36475;SDS011;56615;42.682;23.364;2024-01-15T05:30:24;73.15;;;33.95;;
36475;SDS011;56615;42.682;23.364;2024-01-15T05:32:50;64.53;;;32.38;;
36475;SDS011;56615;42.682;23.364;2024-01-15T05:35:17;67.40;;;32.75;;
36475;SDS011;56615;42.682;23.364;2024-01-15T05:37:43;73.45;;;34.15;;
36475;SDS011;56615;42.682;23.364;2024-01-15T05:40:10;68.10;;;33.65;;
36475;SDS011;56615;42.682;23.364;2024-01-15T05:42:36;73.03;;;34.25;;
36475;SDS011;56615;42.682;23.364;2024-01-15T05:45:02;66.43;;;33.45;;
36475;SDS011;56615;42.682;23.364;2024-01-15T05:47:29;72.50;;;34.00;;
36475;SDS011;56615;42.682;23.364;2024-01-15T05:49:55;64.55;;;32.05;;
36475;SDS011;56615;42.682;23.364;2024-01-15T05:52:22;71.18;;;35.22;;
36475;SDS011;56615;42.682;23.364;2024-01-15T05:54:47;71.28;;;33.63;;
36475;SDS011;56615;42.682;23.364;2024-01-15T05:57:13;69.72;;;34.25;;
36475;SDS011;56615;42.682;23.364;2024-01-15T05:59:38;69.85;;;33.20;;
36475;SDS011;56615;42.682;23.364;2024-01-15T06:02:04;71.10;;;33.40;;
36475;SDS011;56615;42.682;23.364;2024-01-15T06:04:29;67.05;;;32.92;;
36475;SDS011;56615;42.682;23.364;2024-01-15T06:06:54;71.07;;;34.22;;
36475;SDS011;56615;42.682;23.364;2024-01-15T06:09:20;67.15;;;33.30;;
36475;SDS011;56615;42.682;23.364;2024-01-15T06:11:45;73.13;;;34.00;;
36475;SDS011;56615;42.682;23.364;2024-01-15T06:14:10;68.88;;;33.33;;
36475;SDS011;56615;42.682;23.364;2024-01-15T06:16:37;67.05;;;33.33;;
36475;SDS011;56615;42.682;23.364;2024-01-15T06:19:03;69.45;;;33.58;;
36475;SDS011;56615;42.682;23.364;2024-01-15T06:21:28;67.72;;;32.97;;
36475;SDS011;56615;42.682;23.364;2024-01-15T06:23:54;72.15;;;34.90;;
36475;SDS011;56615;42.682;23.364;2024-01-15T06:26:22;68.13;;;33.70;;
36475;SDS011;56615;42.682;23.364;2024-01-15T06:28:47;69.50;;;33.80;;
36475;SDS011;56615;42.682;23.364;2024-01-15T06:31:14;75.15;;;36.47;;
36475;SDS011;56615;42.682;23.364;2024-01-15T06:33:40;72.68;;;36.20;;
36475;SDS011;56615;42.682;23.364;2024-01-15T06:36:06;73.53;;;37.00;;
36475;SDS011;56615;42.682;23.364;2024-01-15T06:38:32;76.28;;;37.10;;
36475;SDS011;56615;42.682;23.364;2024-01-15T06:40:58;72.63;;;37.13;;
36475;SDS011;56615;42.682;23.364;2024-01-15T06:43:23;79.20;;;37.67;;
36475;SDS011;56615;42.682;23.364;2024-01-15T06:45:49;80.95;;;38.67;;
36475;SDS011;56615;42.682;23.364;2024-01-15T06:48:14;77.78;;;39.75;;
36475;SDS011;56615;42.682;23.364;2024-01-15T06:50:41;76.20;;;38.00;;
36475;SDS011;56615;42.682;23.364;2024-01-15T06:53:09;77.60;;;38.42;;
36475;SDS011;56615;42.682;23.364;2024-01-15T06:55:37;77.57;;;39.33;;
36475;SDS011;56615;42.682;23.364;2024-01-15T06:58:03;78.22;;;39.17;;
36475;SDS011;56615;42.682;23.364;2024-01-15T07:00:30;82.97;;;40.85;;
36475;SDS011;56615;42.682;23.364;2024-01-15T07:02:55;80.70;;;40.40;;
36475;SDS011;56615;42.682;23.364;2024-01-15T07:05:21;76.93;;;40.90;;
36475;SDS011;56615;42.682;23.364;2024-01-15T07:07:46;77.53;;;39.97;;
36475;SDS011;56615;42.682;23.364;2024-01-15T07:10:12;80.63;;;39.60;;
36475;SDS011;56615;42.682;23.364;2024-01-15T07:12:38;78.88;;;41.35;;
36475;SDS011;56615;42.682;23.364;2024-01-15T07:15:07;80.32;;;39.65;;
36475;SDS011;56615;42.682;23.364;2024-01-15T07:17:34;78.72;;;40.58;;
36475;SDS011;56615;42.682;23.364;2024-01-15T07:20:00;76.72;;;41.00;;
36475;SDS011;56615;42.682;23.364;2024-01-15T07:22:25;74.50;;;40.22;;
36475;SDS011;56615;42.682;23.364;2024-01-15T07:24:52;88.45;;;42.50;;
36475;SDS011;56615;42.682;23.364;2024-01-15T07:27:17;87.65;;;42.75;;
36475;SDS011;56615;42.682;23.364;2024-01-15T07:29:43;86.72;;;42.55;;
36475;SDS011;56615;42.682;23.364;2024-01-15T07:32:09;79.18;;;40.40;;
36475;SDS011;56615;42.682;23.364;2024-01-15T07:34:35;85.30;;;43.88;;
36475;SDS011;56615;42.682;23.364;2024-01-15T07:37:03;97.90;;;47.53;;
36475;SDS011;56615;42.682;23.364;2024-01-15T07:39:29;105.05;;;53.50;;
36475;SDS011;56615;42.682;23.364;2024-01-15T07:41:55;114.28;;;58.35;;
36475;SDS011;56615;42.682;23.364;2024-01-15T07:44:21;127.32;;;67.45;;
36475;SDS011;56615;42.682;23.364;2024-01-15T07:46:46;143.30;;;70.90;;
36475;SDS011;56615;42.682;23.364;2024-01-15T07:49:13;132.55;;;72.00;;
36475;SDS011;56615;42.682;23.364;2024-01-15T07:51:38;155.32;;;82.20;;
36475;SDS011;56615;42.682;23.364;2024-01-15T07:54:05;150.52;;;81.88;;
36475;SDS011;56615;42.682;23.364;2024-01-15T07:56:31;158.60;;;84.18;;
36475;SDS011;56615;42.682;23.364;2024-01-15T07:58:56;165.10;;;88.30;;
36475;SDS011;56615;42.682;23.364;2024-01-15T08:01:22;157.05;;;84.15;;
36475;SDS011;56615;42.682;23.364;2024-01-15T08:03:47;163.43;;;84.97;;
36475;SDS011;56615;42.682;23.364;2024-01-15T08:06:13;161.35;;;86.22;;
36475;SDS011;56615;42.682;23.364;2024-01-15T08:08:38;153.18;;;80.47;;
36475;SDS011;56615;42.682;23.364;2024-01-15T08:11:04;122.93;;;64.53;;
36475;SDS011;56615;42.682;23.364;2024-01-15T08:13:30;112.50;;;58.80;;
36475;SDS011;56615;42.682;23.364;2024-01-15T08:15:55;128.88;;;65.78;;
36475;SDS011;56615;42.682;23.364;2024-01-15T08:18:21;121.72;;;63.17;;
36475;SDS011;56615;42.682;23.364;2024-01-15T08:20:46;117.25;;;59.90;;
36475;SDS011;56615;42.682;23.364;2024-01-15T08:23:12;123.63;;;62.17;;
36475;SDS011;56615;42.682;23.364;2024-01-15T08:25:37;118.35;;;62.67;;
36475;SDS011;56615;42.682;23.364;2024-01-15T08:28:03;114.07;;;62.10;;
36475;SDS011;56615;42.682;23.364;2024-01-15T08:30:28;119.97;;;62.55;;
36475;SDS011;56615;42.682;23.364;2024-01-15T08:32:54;123.88;;;63.67;;
36475;SDS011;56615;42.682;23.364;2024-01-15T08:35:20;118.47;;;60.75;;
36475;SDS011;56615;42.682;23.364;2024-01-15T08:37:48;114.13;;;61.30;;
36475;SDS011;56615;42.682;23.364;2024-01-15T08:40:14;115.07;;;60.65;;
36475;SDS011;56615;42.682;23.364;2024-01-15T08:42:40;116.40;;;60.25;;
36475;SDS011;56615;42.682;23.364;2024-01-15T08:45:06;115.63;;;61.85;;
36475;SDS011;56615;42.682;23.364;2024-01-15T08:47:31;124.15;;;64.03;;
36475;SDS011;56615;42.682;23.364;2024-01-15T08:49:57;103.30;;;59.05;;
36475;SDS011;56615;42.682;23.364;2024-01-15T08:52:23;116.15;;;63.15;;
36475;SDS011;56615;42.682;23.364;2024-01-15T08:54:49;123.22;;;66.18;;
36475;SDS011;56615;42.682;23.364;2024-01-15T08:57:14;114.78;;;61.22;;
36475;SDS011;56615;42.682;23.364;2024-01-15T08:59:39;102.32;;;55.55;;
36475;SDS011;56615;42.682;23.364;2024-01-15T09:02:06;97.05;;;52.95;;
36475;SDS011;56615;42.682;23.364;2024-01-15T09:04:32;75.20;;;41.95;;
36475;SDS011;56615;42.682;23.364;2024-01-15T09:06:58;53.78;;;28.92;;
36475;SDS011;56615;42.682;23.364;2024-01-15T09:09:23;55.35;;;27.73;;
36475;SDS011;56615;42.682;23.364;2024-01-15T09:11:50;54.33;;;29.90;;
36475;SDS011;56615;42.682;23.364;2024-01-15T09:14:23;62.88;;;33.60;;
36475;SDS011;56615;42.682;23.364;2024-01-15T09:16:55;71.97;;;40.20;;
36475;SDS011;56615;42.682;23.364;2024-01-15T09:19:22;70.65;;;40.95;;
36475;SDS011;56615;42.682;23.364;2024-01-15T09:21:47;66.47;;;37.17;;
36475;SDS011;56615;42.682;23.364;2024-01-15T09:24:12;71.55;;;37.80;;
36475;SDS011;56615;42.682;23.364;2024-01-15T09:26:38;69.07;;;37.33;;
36475;SDS011;56615;42.682;23.364;2024-01-15T09:29:03;71.20;;;38.22;;
36475;SDS011;56615;42.682;23.364;2024-01-15T09:31:28;74.68;;;39.30;;
36475;SDS011;56615;42.682;23.364;2024-01-15T09:33:54;63.67;;;36.33;;
36475;SDS011;56615;42.682;23.364;2024-01-15T09:36:21;63.25;;;34.70;;
36475;SDS011;56615;42.682;23.364;2024-01-15T09:38:47;61.03;;;32.25;;
36475;SDS011;56615;42.682;23.364;2024-01-15T09:41:13;63.78;;;33.42;;
36475;SDS011;56615;42.682;23.364;2024-01-15T09:43:39;65.63;;;35.33;;
36475;SDS011;56615;42.682;23.364;2024-01-15T09:46:05;63.38;;;33.35;;
36475;SDS011;56615;42.682;23.364;2024-01-15T09:48:30;65.65;;;31.73;;
36475;SDS011;56615;42.682;23.364;2024-01-15T09:50:58;57.55;;;30.65;;
36475;SDS011;56615;42.682;23.364;2024-01-15T09:53:26;57.95;;;31.35;;
36475;SDS011;56615;42.682;23.364;2024-01-15T09:55:52;59.50;;;30.38;;
36475;SDS011;56615;42.682;23.364;2024-01-15T09:58:18;58.80;;;31.92;;
36475;SDS011;56615;42.682;23.364;2024-01-15T10:00:44;63.70;;;30.63;;
36475;SDS011;56615;42.682;23.364;2024-01-15T10:03:09;62.40;;;32.92;;
36475;SDS011;56615;42.682;23.364;2024-01-15T10:05:36;61.55;;;33.05;;
36475;SDS011;56615;42.682;23.364;2024-01-15T10:08:02;72.85;;;35.30;;
36475;SDS011;56615;42.682;23.364;2024-01-15T10:10:28;75.40;;;37.63;;
36475;SDS011;56615;42.682;23.364;2024-01-15T10:12:54;76.82;;;38.17;;
36475;SDS011;56615;42.682;23.364;2024-01-15T10:15:22;78.72;;;39.20;;
36475;SDS011;56615;42.682;23.364;2024-01-15T10:17:48;75.63;;;39.42;;
36475;SDS011;56615;42.682;23.364;2024-01-15T10:20:14;74.45;;;40.28;;
36475;SDS011;56615;42.682;23.364;2024-01-15T10:22:41;80.80;;;41.28;;
36475;SDS011;56615;42.682;23.364;2024-01-15T10:25:09;87.72;;;41.72;;
36475;SDS011;56615;42.682;23.364;2024-01-15T10:27:35;81.25;;;41.95;;
36475;SDS011;56615;42.682;23.364;2024-01-15T10:30:01;74.32;;;41.72;;
36475;SDS011;56615;42.682;23.364;2024-01-15T10:32:27;83.30;;;41.90;;
36475;SDS011;56615;42.682;23.364;2024-01-15T10:34:53;79.78;;;40.35;;
36475;SDS011;56615;42.682;23.364;2024-01-15T10:37:19;80.80;;;41.15;;
36475;SDS011;56615;42.682;23.364;2024-01-15T10:39:46;82.15;;;40.30;;
36475;SDS011;56615;42.682;23.364;2024-01-15T10:42:12;76.03;;;37.75;;
36475;SDS011;56615;42.682;23.364;2024-01-15T10:44:37;67.82;;;35.95;;
36475;SDS011;56615;42.682;23.364;2024-01-15T10:47:03;71.85;;;37.65;;
36475;SDS011;56615;42.682;23.364;2024-01-15T10:49:29;74.53;;;36.28;;
36475;SDS011;56615;42.682;23.364;2024-01-15T10:51:56;73.22;;;37.28;;
36475;SDS011;56615;42.682;23.364;2024-01-15T10:54:23;68.80;;;36.45;;
36475;SDS011;56615;42.682;23.364;2024-01-15T10:56:51;67.07;;;36.47;;
36475;SDS011;56615;42.682;23.364;2024-01-15T10:59:18;75.53;;;37.83;;
36475;SDS011;56615;42.682;23.364;2024-01-15T11:01:45;72.72;;;35.97;;
36475;SDS011;56615;42.682;23.364;2024-01-15T11:04:11;67.90;;;35.30;;
36475;SDS011;56615;42.682;23.364;2024-01-15T11:06:41;80.35;;;40.85;;
36475;SDS011;56615;42.682;23.364;2024-01-15T11:09:09;69.82;;;34.25;;
36475;SDS011;56615;42.682;23.364;2024-01-15T11:11:35;65.63;;;33.63;;
36475;SDS011;56615;42.682;23.364;2024-01-15T11:14:02;65.78;;;32.85;;
36475;SDS011;56615;42.682;23.364;2024-01-15T11:16:47;66.80;;;33.50;;
36475;SDS011;56615;42.682;23.364;2024-01-15T11:19:26;65.00;;;31.73;;
36475;SDS011;56615;42.682;23.364;2024-01-15T11:22:04;51.58;;;26.10;;
36475;SDS011;56615;42.682;23.364;2024-01-15T11:24:38;55.15;;;26.23;;
36475;SDS011;56615;42.682;23.364;2024-01-15T11:27:04;51.53;;;26.80;;
36475;SDS011;56615;42.682;23.364;2024-01-15T11:29:32;48.25;;;24.80;;
36475;SDS011;56615;42.682;23.364;2024-01-15T11:37:28;55.13;;;30.02;;
36475;SDS011;56615;42.682;23.364;2024-01-15T11:40:20;57.05;;;30.52;;
36475;SDS011;56615;42.682;23.364;2024-01-15T11:42:50;54.33;;;29.83;;
36475;SDS011;56615;42.682;23.364;2024-01-15T11:45:18;57.47;;;29.42;;
36475;SDS011;56615;42.682;23.364;2024-01-15T11:50:42;54.45;;;26.42;;
36475;SDS011;56615;42.682;23.364;2024-01-15T11:55:39;49.65;;;26.33;;
36475;SDS011;56615;42.682;23.364;2024-01-15T11:58:09;42.45;;;23.33;;
36475;SDS011;56615;42.682;23.364;2024-01-15T12:00:34;51.22;;;25.63;;
36475;SDS011;56615;42.682;23.364;2024-01-15T12:03:06;51.13;;;24.17;;
36475;SDS011;56615;42.682;23.364;2024-01-15T12:05:32;50.20;;;25.65;;
36475;SDS011;56615;42.682;23.364;2024-01-15T12:07:57;54.05;;;26.75;;
36475;SDS011;56615;42.682;23.364;2024-01-15T12:10:26;44.10;;;25.75;;
36475;SDS011;56615;42.682;23.364;2024-01-15T12:15:39;59.45;;;25.45;;
36475;SDS011;56615;42.682;23.364;2024-01-15T12:18:08;52.15;;;24.77;;
36475;SDS011;56615;42.682;23.364;2024-01-15T12:20:34;54.35;;;25.05;;
36475;SDS011;56615;42.682;23.364;2024-01-15T12:23:00;49.42;;;24.77;;
36475;SDS011;56615;42.682;23.364;2024-01-15T12:25:26;50.97;;;26.48;;
36475;SDS011;56615;42.682;23.364;2024-01-15T12:27:54;50.80;;;26.40;;
36475;SDS011;56615;42.682;23.364;2024-01-15T12:30:20;51.60;;;26.58;;
36475;SDS011;56615;42.682;23.364;2024-01-15T12:32:46;54.55;;;27.42;;
36475;SDS011;56615;42.682;23.364;2024-01-15T12:35:12;58.25;;;25.17;;
36475;SDS011;56615;42.682;23.364;2024-01-15T12:37:39;47.42;;;24.35;;
36475;SDS011;56615;42.682;23.364;2024-01-15T12:40:05;48.65;;;26.27;;
36475;SDS011;56615;42.682;23.364;2024-01-15T12:42:41;55.53;;;28.15;;
36475;SDS011;56615;42.682;23.364;2024-01-15T12:45:16;49.85;;;28.33;;
36475;SDS011;56615;42.682;23.364;2024-01-15T12:47:46;52.28;;;27.45;;
36475;SDS011;56615;42.682;23.364;2024-01-15T12:50:12;53.13;;;26.25;;
36475;SDS011;56615;42.682;23.364;2024-01-15T12:52:39;55.67;;;26.20;;
36475;SDS011;56615;42.682;23.364;2024-01-15T12:55:06;51.22;;;26.15;;
36475;SDS011;56615;42.682;23.364;2024-01-15T12:57:32;54.95;;;27.80;;
36475;SDS011;56615;42.682;23.364;2024-01-15T13:00:05;54.50;;;26.85;;
36475;SDS011;56615;42.682;23.364;2024-01-15T13:02:40;51.13;;;27.20;;
36475;SDS011;56615;42.682;23.364;2024-01-15T13:05:07;53.72;;;27.15;;
36475;SDS011;56615;42.682;23.364;2024-01-15T13:07:37;45.72;;;25.23;;
36475;SDS011;56615;42.682;23.364;2024-01-15T13:10:03;59.00;;;26.15;;
36475;SDS011;56615;42.682;23.364;2024-01-15T13:12:29;48.90;;;24.98;;
36475;SDS011;56615;42.682;23.364;2024-01-15T13:15:00;52.70;;;25.23;;
36475;SDS011;56615;42.682;23.364;2024-01-15T13:17:28;47.67;;;24.50;;
36475;SDS011;56615;42.682;23.364;2024-01-15T13:19:53;44.50;;;24.00;;
36475;SDS011;56615;42.682;23.364;2024-01-15T13:22:19;42.92;;;22.60;;
36475;SDS011;56615;42.682;23.364;2024-01-15T13:24:45;48.78;;;23.70;;
36475;SDS011;56615;42.682;23.364;2024-01-15T13:27:13;48.15;;;24.88;;
36475;SDS011;56615;42.682;23.364;2024-01-15T13:29:39;49.80;;;24.52;;
36475;SDS011;56615;42.682;23.364;2024-01-15T13:32:04;52.65;;;25.85;;
36475;SDS011;56615;42.682;23.364;2024-01-15T13:34:30;49.85;;;25.98;;
36475;SDS011;56615;42.682;23.364;2024-01-15T13:36:59;51.40;;;26.42;;
36475;SDS011;56615;42.682;23.364;2024-01-15T13:39:24;54.38;;;25.90;;
36475;SDS011;56615;42.682;23.364;2024-01-15T13:41:52;54.08;;;25.95;;
36475;SDS011;56615;42.682;23.364;2024-01-15T13:44:18;50.35;;;25.08;;
36475;SDS011;56615;42.682;23.364;2024-01-15T13:46:43;52.25;;;26.10;;
36475;SDS011;56615;42.682;23.364;2024-01-15T13:49:08;49.40;;;24.77;;
36475;SDS011;56615;42.682;23.364;2024-01-15T13:51:37;47.85;;;25.05;;
36475;SDS011;56615;42.682;23.364;2024-01-15T13:54:03;52.92;;;25.70;;
36475;SDS011;56615;42.682;23.364;2024-01-15T13:56:32;57.10;;;25.00;;
36475;SDS011;56615;42.682;23.364;2024-01-15T13:58:58;42.45;;;22.95;;
36475;SDS011;56615;42.682;23.364;2024-01-15T14:01:27;48.47;;;24.48;;
36475;SDS011;56615;42.682;23.364;2024-01-15T14:03:53;47.67;;;24.80;;
36475;SDS011;56615;42.682;23.364;2024-01-15T14:06:20;46.70;;;23.30;;
36475;SDS011;56615;42.682;23.364;2024-01-15T14:08:45;47.25;;;24.25;;
36475;SDS011;56615;42.682;23.364;2024-01-15T14:11:10;46.25;;;23.77;;
36475;SDS011;56615;42.682;23.364;2024-01-15T14:13:36;44.50;;;23.50;;
36475;SDS011;56615;42.682;23.364;2024-01-15T14:16:01;46.63;;;23.88;;
36475;SDS011;56615;42.682;23.364;2024-01-15T14:18:30;49.70;;;24.42;;
36475;SDS011;56615;42.682;23.364;2024-01-15T14:20:55;44.53;;;24.75;;